Time;durP1;ratioP1;P1;durP2;ratioP2;P2;SDS_P1;SDS_P2;PMS_P1;PMS_P2;Temp;Humidity;BMP_temperature;BMP_pressure;BME280_temperature;BME280_humidity;BME280_pressure;Samples;Min_cycle;Max_cycle;Signal;HPM_P1;HPM_P2
2024/02/13 00:01:20;;;;;;;5.10;1.60;;;8.20;65.70;;;3.28;100.00;95384.88;4990425;28;20484;-52
2024/02/13 00:03:46;;;;;;;5.60;1.83;;;8.20;65.70;;;3.31;100.00;95386.25;4992980;28;20046;-48
2024/02/13 00:06:12;;;;;;;6.03;2.00;;;8.20;65.70;;;3.32;100.00;95391.31;4998313;28;20025;-48
2024/02/13 00:08:37;;;;;;;3.55;1.52;;;8.20;65.70;;;3.34;100.00;95396.34;4987737;28;20429;-48
2024/02/13 00:11:06;;;;;;;6.70;2.42;;;8.30;65.80;;;3.29;100.00;95397.03;5000924;28;20032;-49
2024/02/13 00:13:36;;;;;;;6.90;1.70;;;8.30;65.80;;;3.31;100.00;95407.31;4994759;28;20362;-48
2024/02/13 00:16:03;;;;;;;4.45;1.70;;;8.30;65.80;;;3.32;100.00;95411.56;4988434;28;20117;-49
2024/02/13 00:18:33;;;;;;;6.00;1.90;;;8.30;65.80;;;3.37;100.00;95415.13;5000046;28;20052;-48
2024/02/13 00:20:59;;;;;;;3.47;1.90;;;8.30;65.80;;;3.37;100.00;95423.03;4987570;28;20436;-48
2024/02/13 00:23:26;;;;;;;8.68;2.20;;;8.30;65.80;;;3.39;100.00;95421.00;4997507;28;20025;-48
2024/02/13 00:25:52;;;;;;;5.43;1.90;;;8.30;65.80;;;3.40;100.00;95422.59;4990504;28;20026;-51
2024/02/13 00:28:19;;;;;;;6.07;1.77;;;8.40;65.80;;;3.40;100.00;95427.84;4995843;28;20050;-50
2024/02/13 00:30:45;;;;;;;4.35;1.73;;;8.40;65.70;;;3.41;100.00;95429.44;4994544;28;20080;-51
2024/02/13 00:33:11;;;;;;;6.50;1.70;;;8.40;65.70;;;3.37;100.00;95430.94;4992280;28;20048;-49
2024/02/13 00:35:39;;;;;;;3.67;1.73;;;8.40;65.70;;;3.36;100.00;95439.06;4991361;28;20389;-49
2024/02/13 00:38:06;;;;;;;4.07;1.90;;;8.30;65.60;;;3.38;100.00;95439.63;4996120;28;20049;-49
2024/02/13 00:40:31;;;;;;;6.97;1.58;;;8.30;65.70;;;3.36;100.00;95433.81;4996875;28;20523;-50
2024/02/13 00:42:57;;;;;;;6.82;2.10;;;8.30;66.50;;;3.34;100.00;95447.19;4989789;28;20037;-54
2024/02/13 00:45:23;;;;;;;3.67;1.90;;;8.30;65.80;;;3.29;100.00;95446.22;4993289;28;20038;-49
2024/02/13 00:47:49;;;;;;;4.13;2.20;;;8.30;65.80;;;3.29;100.00;95454.13;4990041;28;20052;-48
2024/02/13 00:50:16;;;;;;;4.53;2.17;;;8.30;65.80;;;3.29;100.00;95454.97;4991626;28;20040;-49
2024/02/13 00:52:42;;;;;;;4.15;2.00;;;8.20;65.80;;;3.28;100.00;95453.31;4994228;28;20487;-50
2024/02/13 00:55:09;;;;;;;5.07;1.83;;;8.30;65.90;;;3.29;100.00;95454.97;4989624;28;20034;-49
2024/02/13 00:57:35;;;;;;;3.58;2.13;;;8.30;66.00;;;3.29;100.00;95469.94;4997965;28;20080;-49
2024/02/13 01:00:09;;;;;;;4.55;1.95;;;8.20;65.90;;;3.25;100.00;95469.56;4988942;28;20212;-49
2024/02/13 01:02:35;;;;;;;5.63;2.35;;;8.20;66.70;;;3.18;100.00;95472.28;4996075;28;20109;-49
2024/02/13 01:05:02;;;;;;;4.72;2.35;;;8.20;65.90;;;3.17;100.00;95473.31;4996683;28;20514;-54
2024/02/13 01:07:28;;;;;;;3.35;1.92;;;8.20;65.90;;;3.12;100.00;95475.00;4992206;28;20104;-48
2024/02/13 01:09:54;;;;;;;5.18;2.05;;;8.10;65.80;;;3.09;100.00;95478.88;4999335;28;20040;-51
2024/02/13 01:12:20;;;;;;;13.55;2.20;;;8.00;65.80;;;3.05;100.00;95487.44;4994299;28;20116;-51
2024/02/13 01:14:46;;;;;;;4.15;2.00;;;8.00;65.90;;;2.96;100.00;95486.91;4994254;28;20627;-51
2024/02/13 01:17:12;;;;;;;4.75;1.90;;;8.00;66.00;;;2.92;100.00;95496.28;4997058;28;20094;-53
2024/02/13 01:19:38;;;;;;;5.78;2.30;;;7.90;66.00;;;2.96;100.00;95497.44;4995423;28;20025;-51
2024/02/13 01:22:03;;;;;;;5.50;2.30;;;7.90;66.10;;;2.97;100.00;95494.56;4993953;28;20024;-49
2024/02/13 01:24:31;;;;;;;8.20;2.55;;;7.90;66.20;;;2.92;100.00;95506.78;4996642;28;20116;-50
2024/02/13 01:26:57;;;;;;;6.38;2.38;;;7.90;66.20;;;2.86;100.00;95503.22;4997184;28;20037;-49
2024/02/13 01:29:23;;;;;;;8.40;2.90;;;7.80;66.20;;;2.86;100.00;95511.09;4997767;28;20021;-49
2024/02/13 01:31:50;;;;;;;6.68;2.50;;;7.80;66.30;;;2.86;100.00;95515.56;4997101;28;20951;-48
2024/02/13 01:34:16;;;;;;;6.28;2.47;;;7.80;66.30;;;2.87;100.00;95517.16;5003683;28;20043;-48
2024/02/13 01:36:43;;;;;;;4.43;2.20;;;7.80;66.30;;;2.85;100.00;95522.66;4998410;28;20056;-50
2024/02/13 01:39:09;;;;;;;4.78;2.20;;;7.70;66.40;;;2.80;100.00;95519.84;5000532;28;20392;-50
2024/02/13 01:41:35;;;;;;;4.15;2.78;;;7.70;66.40;;;2.80;100.00;95525.13;4995545;28;20034;-50
2024/02/13 01:44:03;;;;;;;4.10;2.38;;;7.70;66.50;;;2.76;100.00;95529.22;4998904;28;20025;-51
2024/02/13 01:46:31;;;;;;;6.75;2.60;;;7.70;66.60;;;2.72;100.00;95531.44;5000217;28;20044;-51
2024/02/13 01:48:59;;;;;;;4.72;2.25;;;7.70;66.70;;;2.77;100.00;95525.56;5002000;28;20035;-57
2024/02/13 01:51:30;;;;;;;7.43;2.25;;;7.70;66.80;;;2.77;100.00;95533.44;4998175;28;20025;-52
2024/02/13 01:54:02;;;;;;;5.35;2.45;;;7.70;66.80;;;2.82;100.00;95538.03;5007811;28;20037;-53
2024/02/13 01:56:33;;;;;;;4.32;2.30;;;7.70;66.90;;;2.82;100.00;95540.66;4994312;28;20025;-49
2024/02/13 01:59:01;;;;;;;12.30;2.50;;;7.70;66.80;;;2.85;100.00;95545.50;4995489;28;20430;-49
2024/02/13 02:01:29;;;;;;;3.75;2.10;;;7.70;66.80;;;2.86;100.00;95545.31;4993402;28;20038;-52
2024/02/13 02:03:58;;;;;;;7.43;2.40;;;7.80;66.90;;;2.88;100.00;95550.34;5001045;28;20144;-54
2024/02/13 02:06:25;;;;;;;8.25;2.75;;;7.80;66.90;;;2.90;100.00;95550.94;4997515;28;20397;-48
2024/02/13 02:08:51;;;;;;;3.85;1.95;;;7.80;66.90;;;2.90;100.00;95558.81;4992620;28;20037;-51
2024/02/13 02:11:17;;;;;;;7.22;2.65;;;7.80;66.80;;;2.91;100.00;95553.34;4983018;28;20469;-49
2024/02/13 02:13:43;;;;;;;4.85;2.38;;;7.90;66.90;;;2.94;100.00;95560.00;4985415;28;20023;-49
2024/02/13 02:16:10;;;;;;;6.15;2.53;;;7.90;66.90;;;2.97;100.00;95563.00;4977936;28;20075;-49
2024/02/13 02:18:36;;;;;;;4.75;2.17;;;7.90;67.00;;;3.00;100.00;95565.19;4982276;28;20053;-48
2024/02/13 02:21:02;;;;;;;6.57;2.25;;;7.90;67.00;;;3.01;100.00;95561.56;4987062;28;20461;-50
2024/02/13 02:23:28;;;;;;;6.15;2.35;;;8.00;67.00;;;3.01;100.00;95571.28;4980148;28;20440;-49
2024/02/13 02:25:54;;;;;;;7.30;2.30;;;8.00;66.90;;;3.01;100.00;95566.81;4986066;28;20041;-48
2024/02/13 02:28:20;;;;;;;4.85;2.33;;;8.00;66.90;;;3.01;100.00;95572.09;4978083;28;20045;-49
2024/02/13 02:30:47;;;;;;;7.13;2.35;;;8.00;66.80;;;2.98;100.00;95575.16;4984675;28;20032;-51
2024/02/13 02:33:13;;;;;;;4.65;2.20;;;8.00;66.80;;;2.95;100.00;95572.94;4984116;28;20137;-48
2024/02/13 02:35:41;;;;;;;6.90;2.58;;;8.00;66.80;;;2.93;100.00;95568.91;4982163;28;20028;-51
2024/02/13 02:38:11;;;;;;;4.90;2.67;;;7.90;66.70;;;2.88;100.00;95584.53;4983535;28;20443;-49
2024/02/13 02:40:40;;;;;;;7.40;2.55;;;7.90;66.70;;;2.86;100.00;95576.88;4980886;28;20026;-49
2024/02/13 02:43:06;;;;;;;5.45;2.42;;;7.80;66.60;;;2.78;100.00;95577.94;4983533;28;20504;-52
2024/02/13 02:45:33;;;;;;;7.03;2.40;;;7.80;66.60;;;2.74;100.00;95579.41;4984641;28;20038;-49
2024/02/13 02:47:59;;;;;;;8.88;2.55;;;7.70;66.70;;;2.71;100.00;95576.41;4982748;28;20030;-50
2024/02/13 02:50:25;;;;;;;8.98;2.20;;;7.60;66.60;;;2.60;100.00;95585.81;4981250;28;20030;-49
2024/02/13 02:52:51;;;;;;;9.43;2.67;;;7.60;66.60;;;2.48;100.00;95582.25;4984649;28;20488;-48
2024/02/13 02:55:18;;;;;;;5.03;2.00;;;7.50;66.60;;;2.45;100.00;95586.09;4987336;28;20029;-48
2024/02/13 02:57:45;;;;;;;4.63;2.15;;;7.50;66.70;;;2.43;100.00;95593.38;4979759;28;20018;-51
2024/02/13 03:00:15;;;;;;;5.28;2.35;;;7.40;66.90;;;2.43;100.00;95595.22;4987572;28;20057;-48
2024/02/13 03:02:42;;;;;;;12.98;2.75;;;7.40;67.00;;;2.38;100.00;95592.41;4977652;28;20029;-52
2024/02/13 03:05:09;;;;;;;4.10;2.10;;;7.30;67.00;;;2.37;100.00;95594.25;4981765;28;20036;-52
2024/02/13 03:07:35;;;;;;;5.53;2.17;;;7.40;67.30;;;2.36;100.00;95604.97;4988727;28;20113;-49
2024/02/13 03:10:10;;;;;;;5.97;2.08;;;7.40;67.30;;;2.40;100.00;95603.53;4989600;28;20469;-48
2024/02/13 03:12:37;;;;;;;6.50;2.13;;;7.40;67.30;;;2.44;100.00;95608.13;4989338;28;20036;-48
2024/02/13 03:15:03;;;;;;;4.40;2.42;;;7.40;67.30;;;2.46;100.00;95611.38;4987504;28;20500;-49
2024/02/13 03:17:31;;;;;;;6.57;2.40;;;7.40;67.40;;;2.48;100.00;95617.22;4990068;28;20050;-48
2024/02/13 03:19:57;;;;;;;3.60;2.33;;;7.40;67.40;;;2.49;100.00;95616.19;4988903;28;20029;-50
2024/02/13 03:22:25;;;;;;;7.63;2.63;;;7.50;67.50;;;2.50;100.00;95614.38;4990288;28;20034;-49
2024/02/13 03:24:51;;;;;;;6.57;2.45;;;7.50;67.40;;;2.54;100.00;95618.22;4989570;28;20033;-56
2024/02/13 03:27:17;;;;;;;6.15;2.28;;;7.50;67.40;;;2.54;100.00;95616.38;4989662;28;20029;-48
2024/02/13 03:29:43;;;;;;;7.55;2.17;;;7.50;67.50;;;2.57;100.00;95625.66;4989417;28;20041;-48
2024/02/13 03:32:09;;;;;;;9.55;2.10;;;7.50;67.50;;;2.59;100.00;95623.63;4989241;28;20049;-48
2024/02/13 03:34:35;;;;;;;4.32;2.17;;;7.50;67.50;;;2.57;100.00;95627.47;4990093;28;20026;-49
2024/02/13 03:37:01;;;;;;;5.68;2.10;;;7.50;67.50;;;2.58;100.00;95624.66;4990397;28;20030;-48
2024/02/13 03:39:26;;;;;;;7.95;2.58;;;7.60;67.60;;;2.55;100.00;95625.06;4992773;28;20032;-55
2024/02/13 03:41:52;;;;;;;6.50;2.50;;;7.50;67.40;;;2.58;100.00;95635.16;4993544;28;20030;-51
2024/02/13 03:44:19;;;;;;;5.38;2.55;;;7.50;67.40;;;2.60;100.00;95630.50;4991601;28;20097;-51
2024/02/13 03:46:45;;;;;;;6.72;2.35;;;7.50;67.40;;;2.61;100.00;95634.75;4993312;28;20546;-52
2024/02/13 03:49:11;;;;;;;5.97;2.78;;;7.60;67.60;;;2.58;100.00;95634.38;4993982;28;20026;-50
2024/02/13 03:51:41;;;;;;;6.63;2.22;;;7.50;67.50;;;2.58;100.00;95631.72;4992707;28;20389;-49
2024/02/13 03:54:10;;;;;;;6.20;2.53;;;7.60;67.70;;;2.54;100.00;95637.41;4993697;28;20034;-52
2024/02/13 03:56:37;;;;;;;6.05;2.38;;;7.60;67.70;;;2.56;100.00;95637.19;4991509;28;20026;-50
2024/02/13 03:59:10;;;;;;;5.25;2.50;;;7.60;67.60;;;2.60;100.00;95640.19;4993917;28;20049;-53
2024/02/13 04:01:37;;;;;;;4.68;2.10;;;7.60;67.70;;;2.58;100.00;95645.69;4992524;28;20431;-49
2024/02/13 04:04:04;;;;;;;7.25;2.38;;;7.50;67.70;;;2.58;100.00;95644.88;5001652;28;20557;-49
2024/02/13 04:06:34;;;;;;;4.57;2.00;;;7.50;67.70;;;2.58;100.00;95644.88;4991815;28;20053;-49
2024/02/13 04:09:06;;;;;;;5.57;2.25;;;7.60;67.70;;;2.60;100.00;95645.47;4986164;28;20032;-50
2024/02/13 04:11:33;;;;;;;;;;;7.60;67.80;;;2.60;100.00;95648.09;4981633;28;20497;-49
2024/02/13 04:13:59;;;;;;;4.30;2.15;;;7.50;67.50;;;2.59;100.00;95647.28;4987107;28;19927;-52
2024/02/13 04:16:25;;;;;;;6.07;2.05;;;7.50;67.60;;;2.61;100.00;95647.09;4987397;28;20585;-49
2024/02/13 04:18:54;;;;;;;7.13;2.38;;;7.50;67.60;;;2.59;100.00;95651.75;4984647;28;20113;-48
2024/02/13 04:21:21;;;;;;;7.00;2.28;;;7.50;67.60;;;2.58;100.00;95656.19;4989287;28;20060;-49
2024/02/13 04:23:50;;;;;;;4.03;2.15;;;7.50;67.60;;;2.57;100.00;95661.66;4983761;28;20468;-48
2024/02/13 04:26:18;;;;;;;6.20;2.15;;;7.50;67.60;;;2.56;100.00;95658.22;4981178;28;20402;-48
2024/02/13 04:28:44;;;;;;;7.65;2.20;;;7.50;67.60;;;2.53;100.00;95658.66;4986081;28;20026;-48
2024/02/13 04:31:10;;;;;;;6.88;2.70;;;7.50;67.60;;;2.53;100.00;95661.28;4988226;28;20037;-48
2024/02/13 04:33:36;;;;;;;6.00;2.03;;;7.50;67.70;;;2.54;100.00;95668.19;4978680;28;20029;-49
2024/02/13 04:36:03;;;;;;;8.63;2.20;;;7.50;67.70;;;2.54;100.00;95668.19;4986178;28;20036;-48
2024/02/13 04:38:31;;;;;;;6.78;2.60;;;7.50;67.80;;;2.58;100.00;95671.97;4982396;28;20073;-50
2024/02/13 04:40:58;;;;;;;7.50;2.78;;;7.60;67.90;;;2.60;100.00;95677.00;4987211;28;20045;-49
2024/02/13 04:43:24;;;;;;;5.75;2.42;;;7.60;68.00;;;2.61;100.00;95671.56;4986866;28;20452;-55
2024/02/13 04:45:50;;;;;;;7.00;2.50;;;7.60;68.00;;;2.66;100.00;95678.81;4985758;28;20025;-51
2024/02/13 04:48:16;;;;;;;4.78;2.03;;;7.70;68.10;;;2.67;100.00;95673.34;4986207;28;20509;-51
2024/02/13 04:50:42;;;;;;;7.95;2.42;;;7.70;68.10;;;2.66;100.00;95673.53;4978274;28;20507;-49
2024/02/13 04:53:08;;;;;;;7.30;2.50;;;7.70;68.00;;;2.65;100.00;95682.47;4985228;28;20366;-50
2024/02/13 04:55:34;;;;;;;7.00;2.30;;;7.80;67.90;;;2.69;100.00;95681.00;4986796;28;20092;-54
2024/02/13 04:58:04;;;;;;;7.72;2.03;;;7.70;67.70;;;2.68;100.00;95682.84;4984564;28;20022;-49
2024/02/13 05:00:35;;;;;;;6.07;2.03;;;7.80;67.80;;;2.71;100.00;95682.41;4991312;28;20108;-52
2024/02/13 05:03:16;;;;;;;7.28;2.45;;;7.80;67.80;;;2.73;100.00;95677.75;4984643;28;20044;-48
2024/02/13 05:08:30;;;;;;;4.63;2.28;;;7.80;67.80;;;2.71;100.00;95686.88;4980854;28;20109;-49
2024/02/13 05:10:56;;;;;;;6.95;2.47;;;7.80;67.80;;;2.74;100.00;95678.56;4983556;28;20041;-55
2024/02/13 05:13:23;;;;;;;6.55;2.25;;;7.80;67.80;;;2.74;100.00;95673.28;4984767;28;20018;-56
2024/02/13 05:15:50;;;;;;;8.38;2.30;;;7.80;67.80;;;2.74;100.00;95676.72;4984674;28;20036;-48
2024/02/13 05:18:17;;;;;;;7.75;2.50;;;7.70;67.70;;;2.73;100.00;95676.97;4985877;28;20114;-48
2024/02/13 05:20:47;;;;;;;4.75;2.08;;;7.70;67.70;;;2.69;100.00;95673.91;4980133;28;20025;-49
2024/02/13 05:23:14;;;;;;;8.20;2.25;;;7.70;67.70;;;2.70;100.00;95680.00;4984317;28;20026;-48
2024/02/13 05:25:40;;;;;;;5.97;2.50;;;7.70;68.60;;;2.68;100.00;95676.78;4978872;28;20034;-53
2024/02/13 05:28:06;;;;;;;5.80;2.42;;;7.70;67.80;;;2.66;100.00;95679.59;4979700;28;20018;-48
2024/02/13 05:30:32;;;;;;;5.72;2.35;;;7.70;67.90;;;2.63;100.00;95676.59;4987865;28;20034;-51
2024/02/13 05:32:59;;;;;;;6.28;2.42;;;7.60;67.90;;;2.60;100.00;95682.28;4982435;28;20040;-52
2024/02/13 05:35:25;;;;;;;8.60;2.88;;;7.60;67.90;;;2.61;100.00;95681.28;4989070;28;20026;-50
2024/02/13 05:37:54;;;;;;;6.50;2.53;;;7.60;67.90;;;2.60;100.00;95679.66;4979140;28;20022;-49
2024/02/13 05:40:20;;;;;;;5.07;2.53;;;7.60;67.90;;;2.59;100.00;95681.47;4982975;28;20038;-50
2024/02/13 05:42:45;;;;;;;4.72;2.60;;;7.60;68.00;;;2.59;100.00;95678.03;4986842;28;20548;-48
2024/02/13 05:45:12;;;;;;;7.93;2.67;;;7.60;68.00;;;2.56;100.00;95676.63;4985510;28;20125;-50
2024/02/13 05:47:38;;;;;;;5.45;2.65;;;7.50;68.00;;;2.54;100.00;95679.50;4988005;28;20056;-48
2024/02/13 05:50:07;;;;;;;10.57;2.75;;;7.50;68.00;;;2.53;100.00;95677.06;4987108;28;20080;-50
2024/02/13 05:52:38;;;;;;;11.20;3.00;;;7.40;67.90;;;2.48;100.00;95680.34;4990966;28;20431;-53
2024/02/13 05:55:05;;;;;;;6.28;3.35;;;7.40;68.00;;;2.44;100.00;95680.97;4989650;28;20056;-49
2024/02/13 05:57:31;;;;;;;4.38;2.70;;;7.40;68.00;;;2.38;100.00;95677.34;4989167;28;20022;-52
2024/02/13 05:59:57;;;;;;;8.18;2.28;;;7.40;68.00;;;2.33;100.00;95684.28;4983014;28;20029;-53
2024/02/13 06:02:25;;;;;;;4.63;2.17;;;7.40;68.00;;;2.34;100.00;95691.94;4991492;28;20049;-56
2024/02/13 06:04:54;;;;;;;11.27;2.22;;;7.30;67.90;;;2.29;100.00;95691.78;4985697;28;20085;-55
2024/02/13 06:07:20;;;;;;;4.53;2.10;;;7.20;67.70;;;2.19;100.00;95692.19;4984735;28;20030;-55
2024/02/13 06:09:46;;;;;;;9.23;2.40;;;7.20;67.70;;;2.14;100.00;95688.59;4978256;28;20351;-57
2024/02/13 06:12:12;;;;;;;7.60;2.60;;;7.10;67.60;;;2.08;100.00;95691.03;4984149;28;20392;-55
2024/02/13 06:14:39;;;;;;;8.80;2.70;;;7.10;67.70;;;1.99;100.00;95688.84;4983397;28;20472;-57
2024/02/13 06:17:05;;;;;;;6.85;2.55;;;7.00;67.60;;;1.91;100.00;95687.25;4987597;28;20100;-56
2024/02/13 06:19:31;;;;;;;10.43;2.85;;;6.90;67.60;;;1.83;100.00;95690.13;4984704;28;20112;-55
2024/02/13 06:21:56;;;;;;;6.60;2.28;;;6.80;67.70;;;1.76;100.00;95692.78;4983026;28;20033;-54
2024/02/13 06:24:23;;;;;;;10.05;2.42;;;6.80;68.50;;;1.68;100.00;95698.22;4982722;28;20017;-54
2024/02/13 06:26:50;;;;;;;6.60;2.45;;;6.70;67.80;;;1.58;100.00;95692.59;4986023;28;20037;-55
2024/02/13 06:29:16;;;;;;;7.47;2.50;;;6.60;67.80;;;1.51;100.00;95697.88;4981915;28;20022;-54
2024/02/13 06:31:42;;;;;;;7.35;2.85;;;6.60;67.80;;;1.43;100.00;95694.66;4986524;28;20025;-56
2024/02/13 06:34:08;;;;;;;6.43;2.80;;;6.50;67.80;;;1.36;100.00;95700.72;4978012;28;20473;-54
2024/02/13 06:36:34;;;;;;;7.55;2.63;;;6.40;67.80;;;1.29;100.00;95707.00;4982507;28;20029;-54
2024/02/13 06:39:00;;;;;;;7.70;3.10;;;6.30;67.80;;;1.24;100.00;95699.72;4983804;28;20060;-53
2024/02/13 06:41:26;;;;;;;7.45;2.70;;;6.30;67.90;;;1.18;100.00;95697.09;4984568;28;20026;-55
2024/02/13 06:43:52;;;;;;;8.55;3.15;;;6.20;67.90;;;1.12;100.00;95709.19;4981185;28;20106;-53
2024/02/13 06:46:18;;;;;;;8.02;3.03;;;6.20;68.00;;;1.05;100.00;95708.41;4985745;28;20053;-55
2024/02/13 06:48:46;;;;;;;5.65;2.63;;;6.10;68.00;;;1.00;100.00;95709.00;4986722;28;20119;-55
2024/02/13 06:51:12;;;;;;;15.88;3.10;;;6.10;68.00;;;0.98;100.00;95712.84;4982020;28;20030;-55
2024/02/13 06:53:39;;;;;;;7.88;2.88;;;6.00;68.00;;;0.92;100.00;95717.88;4987780;28;20021;-56
2024/02/13 06:56:06;;;;;;;6.38;2.85;;;6.00;68.10;;;0.88;100.00;95721.91;4979722;28;20022;-52
2024/02/13 06:58:33;;;;;;;5.88;3.22;;;5.90;68.20;;;0.85;100.00;95719.69;4986676;28;20109;-57
2024/02/13 07:00:59;;;;;;;9.10;3.42;;;5.90;68.20;;;0.87;100.00;95725.53;4987238;28;20092;-52
2024/02/13 07:03:25;;;;;;;14.57;2.90;;;5.90;68.30;;;0.89;100.00;95718.28;4983463;28;20049;-54
2024/02/13 07:05:51;;;;;;;9.40;3.13;;;5.90;68.40;;;0.87;100.00;95722.91;4989733;28;20055;-57
2024/02/13 07:08:17;;;;;;;5.88;3.00;;;5.90;68.40;;;0.85;100.00;95721.53;4993307;28;20033;-57
2024/02/13 07:10:43;;;;;;;8.35;3.53;;;5.90;68.40;;;0.83;100.00;95726.94;4993392;28;20041;-58
2024/02/13 07:13:08;;;;;;;7.15;3.15;;;5.90;68.40;;;0.87;100.00;95727.34;4985970;28;20024;-56
2024/02/13 07:15:37;;;;;;;7.07;3.30;;;5.90;68.50;;;0.92;100.00;95736.25;4982855;28;20470;-58
2024/02/13 07:18:03;;;;;;;6.70;3.33;;;5.90;68.70;;;0.97;100.00;95735.63;4977223;28;20026;-56
2024/02/13 07:20:30;;;;;;;9.95;3.78;;;5.90;68.80;;;1.00;100.00;95740.47;4985278;28;20033;-58
2024/02/13 07:22:56;;;;;;;6.90;3.55;;;6.00;68.90;;;1.05;100.00;95740.69;4982474;28;20037;-58
2024/02/13 07:25:22;;;;;;;7.95;3.28;;;6.00;68.90;;;1.09;100.00;95743.72;4985298;28;20070;-57
2024/02/13 07:27:51;;;;;;;7.68;3.40;;;6.10;68.90;;;1.11;100.00;95746.94;4987649;28;20050;-58
2024/02/13 07:30:17;;;;;;;7.72;3.70;;;6.10;68.90;;;1.19;100.00;95751.19;4985408;28;20413;-58
2024/02/13 07:32:45;;;;;;;5.88;3.20;;;6.20;69.00;;;1.20;100.00;95751.00;4987024;28;20030;-58
2024/02/13 07:35:11;;;;;;;18.42;8.50;;;6.20;69.00;;;1.31;100.00;95763.50;4984066;28;20117;-58
2024/02/13 07:37:37;;;;;;;13.02;4.07;;;6.30;69.10;;;1.37;100.00;95757.44;4984282;28;20102;-58
2024/02/13 07:40:05;;;;;;;8.38;4.05;;;6.40;69.10;;;1.48;100.00;95761.28;4984658;28;20037;-58
2024/02/13 07:42:30;;;;;;;9.70;4.05;;;6.50;69.10;;;1.62;100.00;95759.44;4986889;28;20040;-55
2024/02/13 07:44:57;;;;;;;7.72;3.33;;;6.60;69.20;;;1.83;100.00;95767.09;4982908;28;20128;-56
2024/02/13 07:47:27;;;;;;;7.80;3.47;;;6.90;69.40;;;2.12;100.00;95766.84;4988646;28;20030;-58
2024/02/13 07:49:59;;;;;;;8.57;3.10;;;7.20;69.50;;;2.44;100.00;95773.78;4980553;28;20076;-58
2024/02/13 07:52:25;;;;;;;9.35;3.33;;;7.50;69.60;;;2.81;100.00;95770.59;4983978;28;20113;-56
2024/02/13 07:54:50;;;;;;;9.80;2.95;;;7.80;69.60;;;3.10;100.00;95770.00;4990674;28;20124;-58
2024/02/13 07:57:18;;;;;;;8.43;2.67;;;8.10;69.70;;;3.38;100.00;95768.78;4981358;28;20033;-58
2024/02/13 07:59:44;;;;;;;8.52;2.38;;;8.40;69.60;;;3.72;100.00;95772.75;4992194;28;20037;-58
2024/02/13 08:02:11;;;;;;;5.55;2.40;;;8.70;69.50;;;3.93;100.00;95771.56;4985083;28;20084;-58
2024/02/13 08:04:37;;;;;;;6.10;2.45;;;8.90;69.20;;;3.90;100.00;95764.88;4987597;28;20078;-58
2024/02/13 08:07:03;;;;;;;12.88;2.42;;;9.10;69.00;;;4.05;100.00;95769.81;4989242;28;20072;-57
2024/02/13 08:09:32;;;;;;;3.55;2.10;;;9.30;68.90;;;4.15;100.00;95764.84;4987434;28;20017;-58
2024/02/13 08:12:02;;;;;;;4.97;2.30;;;9.40;68.50;;;4.27;100.00;95764.13;4987068;28;20025;-56
2024/02/13 08:14:29;;;;;;;6.22;2.10;;;9.50;68.20;;;4.38;100.00;95772.06;4988584;28;20030;-57
2024/02/13 08:16:54;;;;;;;8.68;2.20;;;9.60;68.00;;;4.47;100.00;95771.78;4989510;28;20026;-58
2024/02/13 08:19:20;;;;;;;5.68;2.30;;;9.70;67.60;;;4.60;100.00;95774.25;4988553;28;20036;-58
2024/02/13 08:21:46;;;;;;;6.53;2.20;;;10.00;67.30;;;4.84;100.00;95775.19;4994083;28;20022;-58
2024/02/13 08:24:12;;;;;;;6.53;1.85;;;10.30;66.90;;;5.23;100.00;95781.75;4983414;28;20033;-56
2024/02/13 08:26:38;;;;;;;6.32;2.10;;;10.80;66.50;;;5.66;100.00;95782.50;4993835;28;20088;-57
2024/02/13 08:29:04;;;;;;;5.18;1.70;;;11.20;65.90;;;6.10;100.00;95786.47;4984797;28;20026;-58
2024/02/13 08:31:30;;;;;;;8.63;2.10;;;11.70;65.30;;;6.49;100.00;95778.81;4995041;28;20090;-55
2024/02/13 08:33:56;;;;;;;4.70;1.48;;;12.20;64.80;;;6.90;97.95;95780.44;4989670;28;20026;-55
2024/02/13 08:36:24;;;;;;;4.20;1.80;;;12.60;64.10;;;7.30;92.29;95784.03;4987006;28;20034;-56
2024/02/13 08:38:50;;;;;;;3.17;1.52;;;13.10;63.40;;;7.63;87.37;95781.41;4985128;28;20032;-58
2024/02/13 08:41:16;;;;;;;3.45;1.30;;;13.60;62.70;;;7.88;82.79;95790.81;4985232;28;20120;-58
2024/02/13 08:43:42;;;;;;;5.68;1.45;;;14.00;61.80;;;8.18;80.09;95782.53;4985211;28;20026;-55
2024/02/13 08:46:10;;;;;;;6.30;1.30;;;14.50;61.00;;;8.42;76.98;95791.09;4992993;28;20813;-58
2024/02/13 08:48:37;;;;;;;4.32;1.20;;;14.90;59.90;;;8.76;76.33;95788.34;4988583;28;20019;-51
2024/02/13 08:51:05;;;;;;;3.25;1.45;;;15.20;59.10;;;9.03;73.53;95780.41;4991230;28;20034;-58
2024/02/13 08:53:31;;;;;;;2.72;1.83;;;15.50;58.40;;;9.17;70.84;95786.91;4988253;28;20441;-58
2024/02/13 08:55:57;;;;;;;2.33;1.17;;;15.80;57.90;;;9.36;70.79;95790.03;4981184;28;20076;-56
2024/02/13 08:58:23;;;;;;;4.28;1.45;;;16.10;57.20;;;9.64;69.69;95788.16;4988132;28;20381;-55
2024/02/13 09:00:49;;;;;;;2.92;1.27;;;16.40;56.70;;;9.87;68.51;95784.34;4992481;28;20037;-57
2024/02/13 09:03:16;;;;;;;5.85;1.45;;;16.70;56.20;;;9.97;66.55;95795.09;4980521;28;20038;-56
2024/02/13 09:05:42;;;;;;;5.15;1.50;;;16.90;55.40;;;10.16;65.58;95790.16;4988568;28;20038;-59
2024/02/13 09:08:08;;;;;;;4.43;1.67;;;17.10;54.80;;;10.33;66.37;95795.34;4987374;28;20029;-58
2024/02/13 09:10:33;;;;;;;2.25;1.25;;;17.30;54.40;;;10.48;65.64;95794.63;4991433;28;20108;-59
2024/02/13 09:12:59;;;;;;;3.47;1.20;;;17.50;53.90;;;10.75;64.17;95799.81;4985960;28;20120;-59
2024/02/13 09:15:27;;;;;;;5.43;1.73;;;17.70;53.30;;;10.96;62.11;95798.03;4989865;28;20386;-58
2024/02/13 09:17:53;;;;;;;6.13;1.45;;;18.00;52.80;;;11.18;60.53;95789.84;4993064;28;20053;-58
2024/02/13 09:20:21;;;;;;;2.80;1.30;;;18.20;52.20;;;11.25;59.69;95793.88;4983879;28;20401;-57
2024/02/13 09:22:49;;;;;;;2.72;1.30;;;18.40;51.70;;;11.41;58.48;95796.56;4987186;28;20129;-59
2024/02/13 09:25:20;;;;;;;4.88;1.50;;;18.60;51.10;;;11.56;57.77;95796.56;4984380;28;20030;-58
2024/02/13 09:27:51;;;;;;;4.40;1.65;;;18.60;50.70;;;11.68;57.24;95793.66;4984129;28;20192;-59
2024/02/13 09:30:18;;;;;;;2.25;1.50;;;18.80;50.20;;;11.68;57.37;95799.00;4984135;28;20038;-58
2024/02/13 09:32:48;;;;;;;3.17;1.45;;;18.90;49.70;;;11.92;57.04;95796.63;4982802;28;20022;-58
2024/02/13 09:35:14;;;;;;;2.15;1.38;;;19.10;49.10;;;11.97;57.21;95804.63;4983437;28;20021;-59
2024/02/13 09:37:42;;;;;;;6.05;1.60;;;19.30;48.90;;;12.10;55.65;95805.97;4980717;28;20456;-57
2024/02/13 09:40:14;;;;;;;2.58;1.60;;;19.50;48.30;;;12.21;56.00;95802.22;4982949;28;20380;-59
2024/02/13 09:42:45;;;;;;;4.05;1.17;;;19.60;47.70;;;12.35;56.33;95805.94;4983742;28;20041;-59
2024/02/13 09:45:13;;;;;;;3.42;1.50;;;19.80;47.50;;;12.41;55.80;95806.72;4979869;28;20042;-59
2024/02/13 09:47:41;;;;;;;2.47;1.40;;;19.80;47.30;;;12.50;55.25;95807.75;4986357;28;20025;-59
2024/02/13 09:50:12;;;;;;;3.85;1.30;;;20.00;47.20;;;12.43;54.33;95804.56;4980104;28;20033;-58
2024/02/13 09:52:54;;;;;;;3.17;1.40;;;20.20;46.10;;;12.34;55.26;95811.53;4986632;28;20021;-53
2024/02/13 09:55:22;;;;;;;5.32;1.40;;;20.30;45.40;;;12.63;55.41;95814.41;4979548;28;20079;-58
2024/02/13 09:57:50;;;;;;;3.30;1.35;;;20.30;45.60;;;12.64;53.24;95816.81;4985477;28;20033;-56
2024/02/13 10:00:18;;;;;;;5.60;1.48;;;20.40;45.20;;;12.80;52.70;95809.56;4985400;28;20571;-56
2024/02/13 10:02:49;;;;;;;4.18;1.88;;;20.70;44.80;;;13.08;55.52;95808.09;4980137;28;20026;-56
2024/02/13 10:05:16;;;;;;;2.38;1.65;;;20.90;44.80;;;13.40;51.18;95809.56;4985243;28;20068;-54
2024/02/13 10:07:43;;;;;;;2.30;1.67;;;21.20;44.50;;;13.59;51.98;95807.06;4988141;28;20078;-58
2024/02/13 10:10:12;;;;;;;3.75;1.70;;;21.40;44.10;;;13.99;51.91;95808.63;4989666;28;20417;-59
2024/02/13 10:12:48;;;;;;;3.88;1.70;;;21.70;43.70;;;14.21;50.23;95802.81;4987777;28;20032;-58
2024/02/13 10:15:14;;;;;;;2.60;1.88;;;22.00;42.80;;;14.23;51.66;95802.56;4984638;28;20068;-57
2024/02/13 10:17:43;;;;;;;4.63;2.13;;;22.20;43.00;;;14.35;51.05;95809.13;4986716;28;20042;-58
2024/02/13 10:20:13;;;;;;;4.25;2.30;;;22.50;42.50;;;14.43;51.66;95810.38;4986994;28;20026;-59
2024/02/13 10:22:51;;;;;;;6.13;2.08;;;22.80;42.20;;;14.46;52.04;95809.81;4984327;28;20065;-59
2024/02/13 10:25:21;;;;;;;6.63;2.17;;;23.00;41.30;;;14.75;50.52;95814.38;4982571;28;20579;-59
2024/02/13 10:27:49;;;;;;;3.17;1.98;;;23.10;41.30;;;14.83;50.79;95810.28;4988560;28;20084;-59